TKJ3JX LTAC-LTFJ
Flight info
| Callsign | TKJ3JX |
|---|---|
| Flight time | 0h 52m |
| Altitude | 28000 |
| Route | UMRUN G8 TOKER |
| Aircraft | B738/M-SDE2E3FGHIRWXY/LB1 |
Departure
| Time | 2026-04-28 13:10 |
|---|---|
| Airport | Esenboğa International Airport (LTAC) |
Arrival
| Time | 2026-04-28 14:02 |
|---|---|
| Airport | Istanbul Sabiha Gökçen International Airport (LTFJ) |
| Time | Latitude | Longitude | Altitude | Speed | Heading |
|---|---|---|---|---|---|
| 2026-04-28 12:43 | 40.11353 | 32.98808 | 3133 ft | 0 kts | 126° |
| 2026-04-28 12:55 | 40.11353 | 32.98807 | 3133 ft | 1 kts | 126° |
| 2026-04-28 12:55 | 40.11368 | 32.98782 | 3133 ft | 4 kts | 126° |
| 2026-04-28 12:56 | 40.11382 | 32.98757 | 3133 ft | 3 kts | 125° |
| 2026-04-28 12:56 | 40.11389 | 32.98735 | 3133 ft | 4 kts | 51° |
| 2026-04-28 12:56 | 40.11368 | 32.98717 | 3133 ft | 4 kts | 28° |
| 2026-04-28 12:56 | 40.11356 | 32.98707 | 3133 ft | 0 kts | 38° |
| 2026-04-28 12:59 | 40.11356 | 32.98708 | 3133 ft | 1 kts | 38° |
| 2026-04-28 12:59 | 40.11377 | 32.98729 | 3133 ft | 5 kts | 37° |
| 2026-04-28 12:59 | 40.11408 | 32.98759 | 3133 ft | 7 kts | 36° |
| 2026-04-28 13:00 | 40.11457 | 32.98805 | 3133 ft | 9 kts | 36° |
| 2026-04-28 13:00 | 40.11507 | 32.98856 | 3133 ft | 9 kts | 38° |
| 2026-04-28 13:00 | 40.11554 | 32.98908 | 3133 ft | 9 kts | 41° |
| 2026-04-28 13:00 | 40.11595 | 32.98954 | 3133 ft | 7 kts | 26° |
| 2026-04-28 13:01 | 40.11635 | 32.98927 | 3133 ft | 7 kts | 308° |
| 2026-04-28 13:01 | 40.11670 | 32.98893 | 3133 ft | 7 kts | 359° |
| 2026-04-28 13:01 | 40.11724 | 32.98926 | 3133 ft | 12 kts | 36° |
| 2026-04-28 13:01 | 40.11795 | 32.98993 | 3133 ft | 13 kts | 36° |
| 2026-04-28 13:02 | 40.11865 | 32.99059 | 3133 ft | 12 kts | 38° |
| 2026-04-28 13:02 | 40.11935 | 32.99128 | 3133 ft | 14 kts | 35° |
| 2026-04-28 13:02 | 40.12022 | 32.99211 | 3133 ft | 16 kts | 35° |
| 2026-04-28 13:02 | 40.12109 | 32.99294 | 3133 ft | 15 kts | 36° |
| 2026-04-28 13:03 | 40.12192 | 32.99374 | 3133 ft | 16 kts | 37° |
| 2026-04-28 13:03 | 40.12313 | 32.99489 | 3133 ft | 25 kts | 37° |
| 2026-04-28 13:03 | 40.12452 | 32.99622 | 3133 ft | 24 kts | 37° |
| 2026-04-28 13:03 | 40.12583 | 32.99747 | 3133 ft | 23 kts | 36° |
| 2026-04-28 13:04 | 40.12710 | 32.99869 | 3133 ft | 23 kts | 37° |
| 2026-04-28 13:04 | 40.12839 | 32.99992 | 3133 ft | 23 kts | 35° |
| 2026-04-28 13:04 | 40.12965 | 33.00112 | 3133 ft | 24 kts | 36° |
| 2026-04-28 13:04 | 40.13113 | 33.00254 | 3133 ft | 26 kts | 36° |
| 2026-04-28 13:05 | 40.13253 | 33.00388 | 3134 ft | 24 kts | 37° |
| 2026-04-28 13:05 | 40.13385 | 33.00513 | 3134 ft | 23 kts | 37° |
| 2026-04-28 13:05 | 40.13512 | 33.00632 | 3134 ft | 22 kts | 37° |
| 2026-04-28 13:05 | 40.13633 | 33.00750 | 3133 ft | 22 kts | 37° |
| 2026-04-28 13:06 | 40.13755 | 33.00867 | 3133 ft | 25 kts | 36° |
| 2026-04-28 13:06 | 40.13901 | 33.01008 | 3133 ft | 25 kts | 35° |
| 2026-04-28 13:06 | 40.14030 | 33.01076 | 3134 ft | 10 kts | 350° |
| 2026-04-28 13:06 | 40.14087 | 33.01030 | 3134 ft | 10 kts | 307° |
| 2026-04-28 13:07 | 40.14109 | 33.00949 | 3135 ft | 10 kts | 284° |
| 2026-04-28 13:07 | 40.14146 | 33.00869 | 3134 ft | 11 kts | 308° |
| 2026-04-28 13:07 | 40.14191 | 33.00791 | 3133 ft | 10 kts | 307° |
| 2026-04-28 13:07 | 40.14218 | 33.00709 | 3133 ft | 10 kts | 252° |
| 2026-04-28 13:08 | 40.14167 | 33.00647 | 3131 ft | 10 kts | 217° |
| 2026-04-28 13:08 | 40.14162 | 33.00641 | 3131 ft | 0 kts | 217° |
| 2026-04-28 13:09 | 40.14160 | 33.00640 | 3131 ft | 4 kts | 217° |
| 2026-04-28 13:10 | 40.13930 | 33.00420 | 3132 ft | 83 kts | 216° |
| 2026-04-28 13:10 | 40.13254 | 32.99773 | 3135 ft | 156 kts | 218° |
| 2026-04-28 13:10 | 40.12325 | 32.98883 | 3821 ft | 169 kts | 221° |
| 2026-04-28 13:10 | 40.11355 | 32.97928 | 4724 ft | 180 kts | 220° |
| 2026-04-28 13:11 | 40.10343 | 32.96882 | 5433 ft | 193 kts | 221° |
| 2026-04-28 13:11 | 40.09243 | 32.95745 | 5958 ft | 207 kts | 220° |
| 2026-04-28 13:11 | 40.08060 | 32.94538 | 6405 ft | 223 kts | 219° |
| 2026-04-28 13:11 | 40.06930 | 32.93101 | 6912 ft | 238 kts | 236° |
| 2026-04-28 13:12 | 40.06214 | 32.91040 | 7313 ft | 261 kts | 257° |
| 2026-04-28 13:12 | 40.06006 | 32.88699 | 8321 ft | 254 kts | 272° |
| 2026-04-28 13:12 | 40.06174 | 32.86380 | 9187 ft | 265 kts | 278° |
| 2026-04-28 13:12 | 40.06499 | 32.83961 | 10026 ft | 269 kts | 280° |
| 2026-04-28 13:13 | 40.06846 | 32.81592 | 11016 ft | 269 kts | 280° |
| 2026-04-28 13:13 | 40.07206 | 32.79117 | 11548 ft | 286 kts | 281° |
| 2026-04-28 13:13 | 40.07585 | 32.76473 | 11936 ft | 309 kts | 280° |
| 2026-04-28 13:13 | 40.07973 | 32.73586 | 12124 ft | 336 kts | 279° |
| 2026-04-28 13:14 | 40.08376 | 32.70492 | 12566 ft | 352 kts | 279° |
| 2026-04-28 13:14 | 40.08786 | 32.67304 | 13322 ft | 357 kts | 279° |
| 2026-04-28 13:14 | 40.09194 | 32.64099 | 14198 ft | 360 kts | 279° |
| 2026-04-28 13:14 | 40.09606 | 32.60855 | 14886 ft | 365 kts | 279° |
| 2026-04-28 13:15 | 40.10016 | 32.57606 | 16042 ft | 357 kts | 279° |
| 2026-04-28 13:15 | 40.10410 | 32.54477 | 17530 ft | 343 kts | 279° |
| 2026-04-28 13:15 | 40.10798 | 32.51396 | 18458 ft | 346 kts | 279° |
| 2026-04-28 13:15 | 40.11190 | 32.48266 | 19088 ft | 352 kts | 279° |
| 2026-04-28 13:16 | 40.11582 | 32.45136 | 19710 ft | 357 kts | 279° |
| 2026-04-28 13:16 | 40.11983 | 32.41918 | 20389 ft | 361 kts | 279° |
| 2026-04-28 13:16 | 40.12388 | 32.38668 | 21053 ft | 364 kts | 279° |
| 2026-04-28 13:16 | 40.12796 | 32.35387 | 21697 ft | 368 kts | 279° |
| 2026-04-28 13:17 | 40.13207 | 32.32070 | 22313 ft | 372 kts | 279° |
| 2026-04-28 13:17 | 40.13621 | 32.28718 | 22915 ft | 376 kts | 279° |
| 2026-04-28 13:17 | 40.14039 | 32.25333 | 23484 ft | 379 kts | 279° |
| 2026-04-28 13:17 | 40.14460 | 32.21914 | 23987 ft | 383 kts | 279° |
| 2026-04-28 13:18 | 40.14883 | 32.18470 | 24505 ft | 384 kts | 279° |
| 2026-04-28 13:18 | 40.15305 | 32.15016 | 25018 ft | 386 kts | 279° |
| 2026-04-28 13:18 | 40.15736 | 32.11490 | 25475 ft | 389 kts | 279° |
| 2026-04-28 13:18 | 40.16157 | 32.08035 | 25953 ft | 391 kts | 279° |
| 2026-04-28 13:19 | 40.16584 | 32.04519 | 26423 ft | 392 kts | 278° |
| 2026-04-28 13:19 | 40.17010 | 32.00999 | 26967 ft | 392 kts | 278° |
| 2026-04-28 13:19 | 40.17434 | 31.97498 | 27603 ft | 388 kts | 278° |
| 2026-04-28 13:19 | 40.17854 | 31.94016 | 28023 ft | 388 kts | 278° |
| 2026-04-28 13:20 | 40.18272 | 31.90543 | 28009 ft | 386 kts | 278° |
| 2026-04-28 13:20 | 40.19104 | 31.83595 | 28028 ft | 387 kts | 278° |
| 2026-04-28 13:21 | 40.19932 | 31.76637 | 28025 ft | 388 kts | 278° |
| 2026-04-28 13:21 | 40.20758 | 31.69663 | 28024 ft | 388 kts | 278° |
| 2026-04-28 13:22 | 40.21580 | 31.62686 | 28019 ft | 388 kts | 278° |
| 2026-04-28 13:22 | 40.22398 | 31.55712 | 28022 ft | 387 kts | 278° |
| 2026-04-28 13:23 | 40.23215 | 31.48700 | 28037 ft | 398 kts | 278° |
| 2026-04-28 13:23 | 40.23637 | 31.45067 | 28039 ft | 409 kts | 278° |
| 2026-04-28 13:23 | 40.24068 | 31.41346 | 28039 ft | 418 kts | 278° |
| 2026-04-28 13:24 | 40.24953 | 31.33666 | 28038 ft | 434 kts | 278° |
| 2026-04-28 13:24 | 40.25850 | 31.25837 | 27801 ft | 430 kts | 278° |
| 2026-04-28 13:24 | 40.26288 | 31.22000 | 27547 ft | 426 kts | 278° |
| 2026-04-28 13:25 | 40.26726 | 31.18148 | 27293 ft | 428 kts | 279° |
| 2026-04-28 13:25 | 40.27163 | 31.14297 | 27036 ft | 427 kts | 278° |
| 2026-04-28 13:25 | 40.27596 | 31.10465 | 26785 ft | 425 kts | 278° |
| 2026-04-28 13:25 | 40.28026 | 31.06647 | 26532 ft | 424 kts | 278° |
| 2026-04-28 13:26 | 40.28456 | 31.02820 | 26294 ft | 429 kts | 278° |
| 2026-04-28 13:26 | 40.28896 | 30.98889 | 26063 ft | 443 kts | 279° |
| 2026-04-28 13:26 | 40.29334 | 30.94871 | 25815 ft | 447 kts | 277° |
| 2026-04-28 13:26 | 40.29671 | 30.90826 | 25566 ft | 445 kts | 276° |
| 2026-04-28 13:27 | 40.29941 | 30.86796 | 25318 ft | 444 kts | 275° |
| 2026-04-28 13:27 | 40.30190 | 30.82783 | 25079 ft | 442 kts | 275° |
| 2026-04-28 13:27 | 40.30438 | 30.78775 | 24841 ft | 441 kts | 275° |
| 2026-04-28 13:27 | 40.30693 | 30.74776 | 24599 ft | 440 kts | 275° |
| 2026-04-28 13:28 | 40.30955 | 30.70792 | 24362 ft | 439 kts | 276° |
| 2026-04-28 13:28 | 40.31224 | 30.66812 | 24133 ft | 438 kts | 276° |
| 2026-04-28 13:28 | 40.31494 | 30.62843 | 23904 ft | 437 kts | 276° |
| 2026-04-28 13:28 | 40.31765 | 30.58885 | 23669 ft | 436 kts | 276° |
| 2026-04-28 13:29 | 40.32034 | 30.54937 | 23398 ft | 434 kts | 276° |
| 2026-04-28 13:29 | 40.32301 | 30.51004 | 23126 ft | 433 kts | 276° |
| 2026-04-28 13:29 | 40.32565 | 30.47086 | 22872 ft | 431 kts | 275° |
| 2026-04-28 13:29 | 40.32826 | 30.43198 | 22585 ft | 426 kts | 276° |
| 2026-04-28 13:30 | 40.33083 | 30.39336 | 22315 ft | 424 kts | 276° |
| 2026-04-28 13:30 | 40.33338 | 30.35487 | 22050 ft | 424 kts | 275° |
| 2026-04-28 13:30 | 40.33593 | 30.31637 | 21798 ft | 424 kts | 276° |
| 2026-04-28 13:30 | 40.33845 | 30.27794 | 21534 ft | 423 kts | 275° |
| 2026-04-28 13:31 | 40.34342 | 30.20160 | 20735 ft | 424 kts | 275° |
| 2026-04-28 13:31 | 40.34592 | 30.16292 | 20156 ft | 418 kts | 275° |
| 2026-04-28 13:31 | 40.34832 | 30.12563 | 19574 ft | 414 kts | 275° |
| 2026-04-28 13:32 | 40.35072 | 30.08814 | 18988 ft | 411 kts | 275° |
| 2026-04-28 13:32 | 40.35308 | 30.05099 | 18411 ft | 407 kts | 275° |
| 2026-04-28 13:32 | 40.35541 | 30.01419 | 17758 ft | 402 kts | 275° |
| 2026-04-28 13:32 | 40.35769 | 29.97796 | 17142 ft | 396 kts | 275° |
| 2026-04-28 13:33 | 40.35993 | 29.94225 | 16563 ft | 390 kts | 275° |
| 2026-04-28 13:33 | 40.36212 | 29.90707 | 15984 ft | 385 kts | 275° |
| 2026-04-28 13:33 | 40.36429 | 29.87220 | 15435 ft | 381 kts | 275° |
| 2026-04-28 13:33 | 40.36646 | 29.83710 | 14900 ft | 402 kts | 275° |
| 2026-04-28 13:34 | 40.36870 | 29.80078 | 14309 ft | 396 kts | 275° |
| 2026-04-28 13:34 | 40.37088 | 29.76516 | 13740 ft | 388 kts | 275° |
| 2026-04-28 13:34 | 40.37301 | 29.73018 | 13165 ft | 381 kts | 275° |
| 2026-04-28 13:34 | 40.37506 | 29.69622 | 12932 ft | 365 kts | 275° |
| 2026-04-28 13:35 | 40.37701 | 29.66380 | 12760 ft | 350 kts | 275° |
| 2026-04-28 13:35 | 40.37889 | 29.63234 | 12365 ft | 344 kts | 275° |
| 2026-04-28 13:35 | 40.38076 | 29.60108 | 11737 ft | 345 kts | 274° |
| 2026-04-28 13:35 | 40.38262 | 29.56979 | 11262 ft | 343 kts | 274° |
| 2026-04-28 13:36 | 40.38444 | 29.53955 | 11024 ft | 322 kts | 274° |
| 2026-04-28 13:36 | 40.38557 | 29.52036 | 10682 ft | 316 kts | 274° |
| 2026-04-28 13:36 | 40.38720 | 29.49238 | 10453 ft | 299 kts | 274° |
| 2026-04-28 13:36 | 40.38875 | 29.46599 | 10295 ft | 281 kts | 274° |
| 2026-04-28 13:37 | 40.39020 | 29.44113 | 10184 ft | 268 kts | 274° |
| 2026-04-28 13:37 | 40.39158 | 29.41708 | 10062 ft | 261 kts | 274° |
| 2026-04-28 13:37 | 40.39294 | 29.39355 | 9830 ft | 258 kts | 274° |
| 2026-04-28 13:37 | 40.39430 | 29.37018 | 9568 ft | 256 kts | 274° |
| 2026-04-28 13:38 | 40.39567 | 29.34700 | 9279 ft | 254 kts | 277° |
| 2026-04-28 13:38 | 40.40222 | 29.32558 | 9016 ft | 261 kts | 310° |
| 2026-04-28 13:38 | 40.41651 | 29.31048 | 8835 ft | 268 kts | 324° |
| 2026-04-28 13:38 | 40.43239 | 29.29714 | 8570 ft | 273 kts | 326° |
| 2026-04-28 13:39 | 40.44859 | 29.28393 | 8331 ft | 274 kts | 327° |
| 2026-04-28 13:39 | 40.46467 | 29.27082 | 8089 ft | 270 kts | 327° |
| 2026-04-28 13:39 | 40.48044 | 29.25789 | 7870 ft | 267 kts | 327° |
| 2026-04-28 13:39 | 40.49615 | 29.24492 | 7623 ft | 266 kts | 327° |
| 2026-04-28 13:40 | 40.51183 | 29.23192 | 7397 ft | 266 kts | 327° |
| 2026-04-28 13:40 | 40.52679 | 29.21944 | 7184 ft | 266 kts | 327° |
| 2026-04-28 13:40 | 40.54236 | 29.20643 | 6938 ft | 265 kts | 328° |
| 2026-04-28 13:40 | 40.55784 | 29.19350 | 6691 ft | 262 kts | 328° |
| 2026-04-28 13:41 | 40.57319 | 29.18067 | 6454 ft | 260 kts | 328° |
| 2026-04-28 13:41 | 40.58843 | 29.16791 | 6193 ft | 259 kts | 328° |
| 2026-04-28 13:41 | 40.60358 | 29.15522 | 5939 ft | 258 kts | 328° |
| 2026-04-28 13:41 | 40.61870 | 29.14253 | 5702 ft | 257 kts | 328° |
| 2026-04-28 13:42 | 40.63374 | 29.12991 | 5443 ft | 257 kts | 328° |
| 2026-04-28 13:42 | 40.64882 | 29.11720 | 5219 ft | 258 kts | 328° |
| 2026-04-28 13:42 | 40.66392 | 29.10451 | 4939 ft | 256 kts | 328° |
| 2026-04-28 13:42 | 40.67885 | 29.09195 | 4686 ft | 254 kts | 328° |
| 2026-04-28 13:43 | 40.69355 | 29.07958 | 4426 ft | 254 kts | 328° |
| 2026-04-28 13:43 | 40.70861 | 29.06690 | 4174 ft | 253 kts | 328° |
| 2026-04-28 13:43 | 40.72316 | 29.05463 | 3912 ft | 250 kts | 328° |
| 2026-04-28 13:43 | 40.73738 | 29.04263 | 3683 ft | 235 kts | 329° |
| 2026-04-28 13:44 | 40.75076 | 29.03147 | 3432 ft | 220 kts | 333° |
| 2026-04-28 13:44 | 40.76485 | 29.02714 | 3165 ft | 204 kts | 7° |
| 2026-04-28 13:44 | 40.77785 | 29.03265 | 3078 ft | 192 kts | 31° |
| 2026-04-28 13:44 | 40.78884 | 29.04243 | 3065 ft | 193 kts | 32° |
| 2026-04-28 13:45 | 40.79993 | 29.05275 | 3040 ft | 194 kts | 45° |
| 2026-04-28 13:45 | 40.80751 | 29.06686 | 3055 ft | 185 kts | 56° |
| 2026-04-28 13:45 | 40.81414 | 29.08083 | 3037 ft | 174 kts | 59° |
| 2026-04-28 13:45 | 40.81973 | 29.09447 | 3042 ft | 166 kts | 62° |
| 2026-04-28 13:46 | 40.82483 | 29.10792 | 3061 ft | 163 kts | 62° |
| 2026-04-28 13:46 | 40.82984 | 29.12149 | 3066 ft | 165 kts | 62° |
| 2026-04-28 13:46 | 40.83488 | 29.13526 | 3063 ft | 166 kts | 63° |
| 2026-04-28 13:46 | 40.83982 | 29.14880 | 3060 ft | 163 kts | 62° |
| 2026-04-28 13:47 | 40.84481 | 29.16246 | 2863 ft | 164 kts | 62° |
| 2026-04-28 13:47 | 40.84957 | 29.17550 | 2591 ft | 153 kts | 62° |
| 2026-04-28 13:47 | 40.85406 | 29.18780 | 2375 ft | 148 kts | 62° |
| 2026-04-28 13:47 | 40.85845 | 29.19977 | 2153 ft | 144 kts | 61° |
| 2026-04-28 13:48 | 40.86283 | 29.21174 | 1917 ft | 145 kts | 63° |
| 2026-04-28 13:48 | 40.86714 | 29.22353 | 1655 ft | 140 kts | 63° |
| 2026-04-28 13:48 | 40.87122 | 29.23531 | 1356 ft | 142 kts | 64° |
| 2026-04-28 13:48 | 40.87537 | 29.24686 | 1161 ft | 137 kts | 60° |
| 2026-04-28 13:49 | 40.87969 | 29.25787 | 1017 ft | 135 kts | 61° |
| 2026-04-28 13:49 | 40.88375 | 29.26917 | 790 ft | 136 kts | 64° |
| 2026-04-28 13:49 | 40.88778 | 29.28033 | 587 ft | 135 kts | 60° |
| 2026-04-28 13:49 | 40.89194 | 29.29136 | 374 ft | 133 kts | 62° |
| 2026-04-28 13:50 | 40.89607 | 29.30264 | 466 ft | 152 kts | 62° |
| 2026-04-28 13:50 | 40.90052 | 29.31555 | 889 ft | 150 kts | 63° |
| 2026-04-28 13:50 | 40.90464 | 29.32771 | 1215 ft | 147 kts | 64° |
| 2026-04-28 13:50 | 40.90870 | 29.34171 | 1599 ft | 178 kts | 65° |
| 2026-04-28 13:51 | 40.91385 | 29.35617 | 2862 ft | 177 kts | 65° |
| 2026-04-28 13:51 | 40.91957 | 29.37199 | 2729 ft | 187 kts | 65° |
| 2026-04-28 13:51 | 40.92422 | 29.38771 | 2908 ft | 195 kts | 67° |
| 2026-04-28 13:51 | 40.92989 | 29.40437 | 3095 ft | 200 kts | 64° |
| 2026-04-28 13:52 | 40.93587 | 29.42104 | 3332 ft | 203 kts | 63° |
| 2026-04-28 13:52 | 40.94015 | 29.43878 | 3563 ft | 207 kts | 87° |
| 2026-04-28 13:52 | 40.93642 | 29.45710 | 3764 ft | 215 kts | 122° |
| 2026-04-28 13:52 | 40.92509 | 29.46972 | 4034 ft | 215 kts | 152° |
| 2026-04-28 13:53 | 40.91116 | 29.47815 | 4029 ft | 223 kts | 155° |
| 2026-04-28 13:53 | 40.89715 | 29.48612 | 4047 ft | 217 kts | 155° |
| 2026-04-28 13:53 | 40.88326 | 29.49394 | 4069 ft | 218 kts | 156° |
| 2026-04-28 13:53 | 40.86870 | 29.49873 | 4051 ft | 217 kts | 182° |
| 2026-04-28 13:54 | 40.85463 | 29.49234 | 4059 ft | 217 kts | 218° |
| 2026-04-28 13:54 | 40.84548 | 29.47687 | 4065 ft | 213 kts | 244° |
| 2026-04-28 13:54 | 40.83904 | 29.45926 | 4044 ft | 213 kts | 245° |
| 2026-04-28 13:54 | 40.83277 | 29.44184 | 4049 ft | 213 kts | 246° |
| 2026-04-28 13:55 | 40.82637 | 29.42412 | 4049 ft | 215 kts | 246° |
| 2026-04-28 13:55 | 40.81986 | 29.40611 | 4062 ft | 220 kts | 246° |
| 2026-04-28 13:55 | 40.81332 | 29.38794 | 4042 ft | 218 kts | 246° |
| 2026-04-28 13:55 | 40.80694 | 29.37027 | 4042 ft | 210 kts | 246° |
| 2026-04-28 13:56 | 40.80079 | 29.35330 | 3930 ft | 200 kts | 246° |
| 2026-04-28 13:56 | 40.79478 | 29.33692 | 3641 ft | 198 kts | 246° |
| 2026-04-28 13:56 | 40.78881 | 29.32059 | 3345 ft | 197 kts | 246° |
| 2026-04-28 13:56 | 40.78289 | 29.30434 | 3103 ft | 196 kts | 246° |
| 2026-04-28 13:57 | 40.77694 | 29.28821 | 3058 ft | 195 kts | 246° |
| 2026-04-28 13:57 | 40.77092 | 29.27204 | 3048 ft | 196 kts | 246° |
| 2026-04-28 13:57 | 40.76492 | 29.25590 | 3061 ft | 196 kts | 246° |
| 2026-04-28 13:57 | 40.76041 | 29.23910 | 3026 ft | 195 kts | 274° |
| 2026-04-28 13:58 | 40.76521 | 29.22313 | 3071 ft | 190 kts | 312° |
| 2026-04-28 13:58 | 40.77538 | 29.21244 | 3050 ft | 186 kts | 340° |
| 2026-04-28 13:58 | 40.78728 | 29.20615 | 3045 ft | 182 kts | 338° |
| 2026-04-28 13:58 | 40.79834 | 29.19938 | 3048 ft | 169 kts | 337° |
| 2026-04-28 13:59 | 40.80883 | 29.19276 | 2926 ft | 167 kts | 337° |
| 2026-04-28 13:59 | 40.81953 | 29.18838 | 2693 ft | 156 kts | 9° |
| 2026-04-28 13:59 | 40.82843 | 29.19565 | 2588 ft | 160 kts | 59° |
| 2026-04-28 13:59 | 40.83485 | 29.20737 | 2534 ft | 160 kts | 43° |
| 2026-04-28 14:00 | 40.84372 | 29.21581 | 2240 ft | 153 kts | 31° |
| 2026-04-28 14:00 | 40.85257 | 29.22251 | 1882 ft | 143 kts | 28° |
| 2026-04-28 14:00 | 40.86163 | 29.22926 | 1441 ft | 154 kts | 34° |
| 2026-04-28 14:00 | 40.86991 | 29.23855 | 1175 ft | 164 kts | 49° |
| 2026-04-28 14:01 | 40.87643 | 29.25030 | 1110 ft | 158 kts | 57° |
| 2026-04-28 14:01 | 40.88175 | 29.26294 | 957 ft | 157 kts | 65° |
| 2026-04-28 14:01 | 40.88627 | 29.27582 | 737 ft | 152 kts | 66° |
| 2026-04-28 14:01 | 40.89089 | 29.28832 | 451 ft | 151 kts | 65° |
| 2026-04-28 14:02 | 40.89528 | 29.30037 | 319 ft | 138 kts | 65° |
| 2026-04-28 14:02 | 40.89900 | 29.31044 | 310 ft | 101 kts | 63° |
| 2026-04-28 14:02 | 40.90127 | 29.31656 | 311 ft | 31 kts | 63° |
| 2026-04-28 14:02 | 40.90234 | 29.31950 | 311 ft | 39 kts | 64° |
| 2026-04-28 14:03 | 40.90359 | 29.32289 | 312 ft | 42 kts | 64° |
| 2026-04-28 14:03 | 40.90421 | 29.32452 | 312 ft | 14 kts | 48° |
| 2026-04-28 14:03 | 40.90518 | 29.32462 | 310 ft | 16 kts | 338° |
| 2026-04-28 14:03 | 40.90603 | 29.32382 | 310 ft | 15 kts | 301° |
| 2026-04-28 14:04 | 40.90680 | 29.32298 | 309 ft | 16 kts | 335° |
| 2026-04-28 14:04 | 40.90739 | 29.32230 | 310 ft | 6 kts | 276° |
| 2026-04-28 14:04 | 40.90737 | 29.32162 | 310 ft | 8 kts | 287° |
| 2026-04-28 14:04 | 40.90806 | 29.32078 | 310 ft | 14 kts | 334° |
| 2026-04-28 14:05 | 40.90852 | 29.32004 | 310 ft | 9 kts | 305° |
| 2026-04-28 14:05 | 40.90874 | 29.31978 | 310 ft | 1 kts | 301° |
| 2026-04-28 14:05 | 40.90872 | 29.31945 | 310 ft | 5 kts | 251° |
| 2026-04-28 14:05 | 40.90860 | 29.31912 | 309 ft | 0 kts | 244° |